createdAt,value
2018-05-18T00:00:57.560Z,90.82
2018-05-18T00:03:25.156Z,90.89
2018-05-18T00:05:52.897Z,91.07
2018-05-18T00:08:20.701Z,91.29
2018-05-18T00:10:48.433Z,91.63
2018-05-18T00:13:16.242Z,92.06
2018-05-18T00:15:43.835Z,92.41
2018-05-18T00:18:11.639Z,92.90
2018-05-18T00:20:39.241Z,93.02
2018-05-18T00:23:06.841Z,92.88
2018-05-18T00:25:34.444Z,92.75
2018-05-18T00:28:02.247Z,92.98
2018-05-18T00:30:30.066Z,93.14
2018-05-18T00:32:57.680Z,93.04
2018-05-18T00:35:25.269Z,92.84
2018-05-18T00:37:53.121Z,92.87
2018-05-18T00:40:20.818Z,92.82
2018-05-18T00:42:48.451Z,93.00
2018-05-18T00:45:16.275Z,92.94
2018-05-18T00:47:44.093Z,92.96
2018-05-18T00:50:11.913Z,93.00
2018-05-18T00:52:39.731Z,92.65
2018-05-18T00:55:19.105Z,92.08
2018-05-18T00:57:47.009Z,92.07
2018-05-18T01:00:14.633Z,92.44
2018-05-18T01:02:42.446Z,92.77
2018-05-18T01:05:10.034Z,92.72
2018-05-18T01:07:37.624Z,92.58
2018-05-18T01:10:05.249Z,92.34
2018-05-18T01:12:32.832Z,92.73
2018-05-18T01:15:00.448Z,92.48
2018-05-18T01:17:28.038Z,92.77
2018-05-18T01:19:55.684Z,92.36
2018-05-18T01:22:23.493Z,92.02
2018-05-18T01:24:51.086Z,92.18
2018-05-18T01:27:18.929Z,92.41
2018-05-18T01:29:46.636Z,91.88
2018-05-18T01:32:14.242Z,91.88
2018-05-18T01:34:41.829Z,91.99
2018-05-18T01:37:09.500Z,92.25
2018-05-18T01:39:37.085Z,91.62
2018-05-18T01:42:05.735Z,91.81
2018-05-18T01:44:33.343Z,92.25
2018-05-18T01:47:00.941Z,92.54
2018-05-18T01:49:28.534Z,92.56
2018-05-18T01:51:56.297Z,92.37
2018-05-18T01:54:23.888Z,92.78
2018-05-18T01:56:51.477Z,92.86
2018-05-18T01:59:19.266Z,92.78
2018-05-18T02:01:47.084Z,92.48
2018-05-18T02:04:14.905Z,92.35
2018-05-18T02:06:42.722Z,92.24
2018-05-18T02:09:10.304Z,92.36
2018-05-18T02:11:37.900Z,92.49
2018-05-18T02:14:05.498Z,92.63
2018-05-18T02:16:33.201Z,92.98
2018-05-18T02:19:01.956Z,93.12
2018-05-18T02:21:29.556Z,92.57
2018-05-18T02:23:57.351Z,92.09
2018-05-18T02:26:25.002Z,92.19
2018-05-18T02:28:52.769Z,92.23
2018-05-18T02:31:20.352Z,92.51
2018-05-18T02:33:48.105Z,92.31
2018-05-18T02:36:15.688Z,91.56
2018-05-18T02:38:43.459Z,91.56
2018-05-18T02:41:11.291Z,91.81
2018-05-18T02:43:38.924Z,91.90
2018-05-18T02:46:06.545Z,91.80
2018-05-18T02:48:34.150Z,92.06
2018-05-18T02:51:01.966Z,92.17
2018-05-18T02:53:29.769Z,92.14
2018-05-18T02:55:57.359Z,92.32
2018-05-18T02:58:25.106Z,92.60
2018-05-18T03:00:52.698Z,92.57
2018-05-18T03:03:20.277Z,92.12
2018-05-18T03:05:47.865Z,91.63
2018-05-18T03:08:15.463Z,90.72
2018-05-18T03:10:43.137Z,90.67
2018-05-18T03:13:10.644Z,91.34
2018-05-18T03:15:38.251Z,91.58
2018-05-18T03:18:06.049Z,91.44
2018-05-18T03:20:33.625Z,90.68
2018-05-18T03:23:01.253Z,90.54
2018-05-18T03:25:28.976Z,90.36
2018-05-18T03:27:56.653Z,89.90
2018-05-18T03:30:24.237Z,89.71
2018-05-18T03:32:51.962Z,89.60
2018-05-18T03:35:19.676Z,89.31
2018-05-18T03:37:47.269Z,88.59
2018-05-18T03:40:14.876Z,87.80
2018-05-18T03:42:42.592Z,87.42
2018-05-18T03:45:10.449Z,87.25
2018-05-18T03:47:38.021Z,87.63
2018-05-18T03:50:05.616Z,86.97
2018-05-18T03:52:33.245Z,86.58
2018-05-18T03:55:00.856Z,85.10
2018-05-18T03:57:28.447Z,84.49
2018-05-18T03:59:56.024Z,84.29
2018-05-18T04:02:35.314Z,83.94
2018-05-18T04:05:14.466Z,84.18
2018-05-18T04:07:57.715Z,83.59
2018-05-18T04:10:25.334Z,83.57
2018-05-18T04:12:53.182Z,83.66
2018-05-18T04:15:20.756Z,82.96
2018-05-18T04:17:48.332Z,82.93
2018-05-18T04:20:15.929Z,82.51
2018-05-18T04:22:44.123Z,82.28
2018-05-18T04:25:11.712Z,83.16
2018-05-18T04:27:39.294Z,83.22
2018-05-18T04:30:07.179Z,82.26
2018-05-18T04:32:35.534Z,81.25
2018-05-18T04:35:03.144Z,81.70
2018-05-18T04:37:30.968Z,82.28
2018-05-18T04:39:58.540Z,81.86
2018-05-18T04:42:26.125Z,81.15
2018-05-18T04:44:53.709Z,81.66
2018-05-18T04:47:21.545Z,81.08
2018-05-18T04:49:49.360Z,81.60
2018-05-18T04:52:16.944Z,82.33
2018-05-18T04:54:44.695Z,82.82
2018-05-18T04:57:12.514Z,82.17
2018-05-18T04:59:40.096Z,81.99
2018-05-18T05:02:07.675Z,82.13
2018-05-18T05:04:35.468Z,81.89
2018-05-18T05:07:03.069Z,81.26
2018-05-18T05:09:30.667Z,80.12
2018-05-18T05:11:58.262Z,79.72
2018-05-18T05:14:25.841Z,80.31
2018-05-18T05:16:53.457Z,80.49
2018-05-18T05:19:21.277Z,79.91
2018-05-18T05:21:48.848Z,79.88
2018-05-18T05:24:16.428Z,79.18
2018-05-18T05:26:44.026Z,78.08
2018-05-18T05:29:11.616Z,77.14
2018-05-18T05:31:39.246Z,77.48
2018-05-18T05:34:06.823Z,77.02
2018-05-18T05:36:34.654Z,77.24
2018-05-18T05:39:02.233Z,75.82
2018-05-18T05:41:29.817Z,75.01
2018-05-18T05:43:57.403Z,74.46
2018-05-18T05:46:25.176Z,74.33
2018-05-18T05:48:52.902Z,73.06
2018-05-18T05:51:20.710Z,71.48
2018-05-18T05:53:48.291Z,70.93
2018-05-18T05:56:16.048Z,70.33
2018-05-18T05:58:43.620Z,70.49
2018-05-18T06:01:11.350Z,66.47
2018-05-18T06:03:38.936Z,66.27
2018-05-18T06:06:06.523Z,67.97
2018-05-18T06:08:34.132Z,67.52
2018-05-18T06:11:01.958Z,67.21
2018-05-18T06:13:29.774Z,65.66
2018-05-18T06:15:57.361Z,66.81
2018-05-18T06:18:24.936Z,66.26
2018-05-18T06:20:52.509Z,65.49
2018-05-18T06:23:20.225Z,64.92
2018-05-18T06:25:47.943Z,64.18
2018-05-18T06:28:15.539Z,61.98
2018-05-18T06:30:43.144Z,62.38
2018-05-18T06:33:10.735Z,59.91
2018-05-18T06:35:38.450Z,57.58
2018-05-18T06:38:06.062Z,57.38
2018-05-18T06:40:33.873Z,56.24
2018-05-18T06:43:01.694Z,56.26
2018-05-18T06:45:29.273Z,55.19
2018-05-18T06:47:56.842Z,53.86
2018-05-18T06:50:24.526Z,54.15
2018-05-18T06:52:52.144Z,51.94
2018-05-18T06:55:19.732Z,51.86
2018-05-18T06:57:47.559Z,49.95
2018-05-18T07:00:15.197Z,50.20
2018-05-18T07:02:42.781Z,49.46
2018-05-18T07:05:10.370Z,46.03
2018-05-18T07:07:38.176Z,46.50
2018-05-18T07:10:05.781Z,47.38
2018-05-18T07:12:33.384Z,46.50
2018-05-18T07:15:01.102Z,44.37
2018-05-18T07:17:28.700Z,43.99
2018-05-18T07:19:56.280Z,43.63
2018-05-18T07:22:23.861Z,44.46
2018-05-18T07:24:51.441Z,40.26
2018-05-18T07:27:19.020Z,40.49
2018-05-18T07:29:46.832Z,41.18
2018-05-18T07:32:14.405Z,41.70
2018-05-18T07:34:42.139Z,37.19
2018-05-18T07:37:09.855Z,36.21
2018-05-18T07:39:37.440Z,33.53
2018-05-18T07:42:05.223Z,35.41
2018-05-18T07:44:33.041Z,35.41
2018-05-18T07:47:00.606Z,38.37
2018-05-18T07:49:28.267Z,39.17
2018-05-18T07:51:55.853Z,39.98
2018-05-18T07:54:23.617Z,38.32
2018-05-18T07:56:51.433Z,39.01
2018-05-18T07:59:19.252Z,39.42
2018-05-18T08:01:46.836Z,42.53
2018-05-18T08:04:14.456Z,38.48
2018-05-18T08:06:42.047Z,38.57
2018-05-18T08:09:09.616Z,40.46
2018-05-18T08:11:37.205Z,41.14
2018-05-18T08:14:04.837Z,38.04
2018-05-18T08:16:32.460Z,37.89
2018-05-18T08:19:00.049Z,38.78
2018-05-18T08:21:27.658Z,38.93
2018-05-18T08:23:55.236Z,41.59
2018-05-18T08:26:22.828Z,37.17
2018-05-18T08:29:02.168Z,35.95
2018-05-18T08:31:29.831Z,37.85
2018-05-18T08:33:57.403Z,36.92
2018-05-18T08:36:25.071Z,35.62
2018-05-18T08:38:52.910Z,35.01
2018-05-18T08:41:20.491Z,35.52
2018-05-18T08:43:49.022Z,32.76
2018-05-18T08:46:16.626Z,32.22
2018-05-18T08:48:44.199Z,33.27
2018-05-18T08:51:11.796Z,34.83
2018-05-18T08:53:39.487Z,34.81
2018-05-18T08:56:07.133Z,28.57
2018-05-18T08:58:34.726Z,28.75
2018-05-18T09:01:02.308Z,29.55
2018-05-18T09:03:29.928Z,31.44
2018-05-18T09:05:57.505Z,34.44
2018-05-18T09:08:25.301Z,32.57
2018-05-18T09:10:52.891Z,32.22
2018-05-18T09:13:20.738Z,29.38
2018-05-18T09:15:48.324Z,30.11
2018-05-18T09:18:16.077Z,30.41
2018-05-18T09:20:43.898Z,29.17
2018-05-18T09:23:11.607Z,29.38
2018-05-18T09:25:39.228Z,29.02
2018-05-18T09:28:06.895Z,29.66
2018-05-18T09:30:34.691Z,29.84
2018-05-18T09:33:02.518Z,30.03
2018-05-18T09:35:30.529Z,29.19
2018-05-18T09:37:58.261Z,28.75
2018-05-18T09:40:26.004Z,28.99
2018-05-18T09:42:53.793Z,28.52
2018-05-18T09:45:21.422Z,29.18
2018-05-18T09:47:49.164Z,29.29
2018-05-18T09:50:16.893Z,30.08
2018-05-18T09:52:44.513Z,32.85
2018-05-18T09:55:12.424Z,33.69
2018-05-18T09:57:39.913Z,30.34
2018-05-18T10:00:07.535Z,31.93
2018-05-18T10:02:35.112Z,30.29
2018-05-18T10:05:02.769Z,31.81
2018-05-18T10:07:30.584Z,31.52
2018-05-18T10:09:58.164Z,30.99
2018-05-18T10:12:25.809Z,30.91
2018-05-18T10:14:53.360Z,31.10
2018-05-18T10:17:21.129Z,30.15
2018-05-18T10:19:49.065Z,30.99
2018-05-18T10:22:16.705Z,31.88
2018-05-18T10:24:44.381Z,31.16
2018-05-18T10:27:12.220Z,31.16
2018-05-18T10:29:40.138Z,32.55
2018-05-18T10:32:07.709Z,31.34
2018-05-18T10:34:35.295Z,31.73
2018-05-18T10:37:02.979Z,30.83
2018-05-18T10:39:30.625Z,32.42
2018-05-18T10:41:58.384Z,32.42
2018-05-18T10:44:26.122Z,31.98
2018-05-18T10:46:54.646Z,33.50
2018-05-18T10:49:22.247Z,32.64
2018-05-18T10:51:49.837Z,33.96
2018-05-18T10:54:17.557Z,32.92
2018-05-18T10:56:45.200Z,32.90
2018-05-18T10:59:12.772Z,34.14
2018-05-18T11:01:40.383Z,35.64
2018-05-18T11:04:08.197Z,35.64
2018-05-18T11:06:35.792Z,34.38
2018-05-18T11:09:03.512Z,35.39
2018-05-18T11:11:31.253Z,35.48
2018-05-18T11:13:58.911Z,34.31
2018-05-18T11:16:26.473Z,34.84
2018-05-18T11:18:54.204Z,33.94
2018-05-18T11:21:21.913Z,34.73
2018-05-18T11:23:49.741Z,34.78
2018-05-18T11:26:17.353Z,35.68
2018-05-18T11:28:44.951Z,35.59
2018-05-18T11:31:12.547Z,35.28
2018-05-18T11:33:40.316Z,35.26
2018-05-18T11:36:07.949Z,36.55
2018-05-18T11:38:35.831Z,35.98
2018-05-18T11:41:03.459Z,35.44
2018-05-18T11:43:31.766Z,35.25
2018-05-18T11:45:59.352Z,35.29
2018-05-18T11:48:26.928Z,34.68
2018-05-18T11:50:54.743Z,32.75
2018-05-18T11:53:22.563Z,33.49
2018-05-18T11:55:50.141Z,34.27
2018-05-18T11:58:17.713Z,36.08
2018-05-18T12:00:45.284Z,34.92
2018-05-18T12:03:13.026Z,33.32
2018-05-18T12:05:40.607Z,33.70
2018-05-18T12:08:08.484Z,33.33
2018-05-18T12:10:36.064Z,32.46
2018-05-18T12:13:03.841Z,32.37
2018-05-18T12:15:32.141Z,33.55
2018-05-18T12:17:59.729Z,33.54
2018-05-18T12:20:27.402Z,33.50
2018-05-18T12:22:55.116Z,33.15
2018-05-18T12:25:22.744Z,33.22
2018-05-18T12:27:50.323Z,33.38
2018-05-18T12:30:17.896Z,33.34
2018-05-18T12:32:45.689Z,34.56
2018-05-18T12:35:13.509Z,34.88
2018-05-18T12:37:41.327Z,33.19
2018-05-18T12:40:08.919Z,34.71
2018-05-18T12:42:36.554Z,34.44
2018-05-18T12:45:04.381Z,32.66
2018-05-18T12:47:31.967Z,31.89
2018-05-18T12:49:59.572Z,31.69
2018-05-18T12:52:27.245Z,32.57
2018-05-18T12:54:55.053Z,31.91
2018-05-18T12:57:22.637Z,33.98
2018-05-18T12:59:50.272Z,32.23
2018-05-18T13:02:17.864Z,33.74
2018-05-18T13:04:45.441Z,32.30
2018-05-18T13:07:13.221Z,31.92
2018-05-18T13:09:40.813Z,32.04
2018-05-18T13:12:08.400Z,31.51
2018-05-18T13:14:35.976Z,33.44
2018-05-18T13:17:03.613Z,33.40
2018-05-18T13:19:31.192Z,34.03
2018-05-18T13:21:59.052Z,34.68
2018-05-18T13:24:26.629Z,35.47
2018-05-18T13:26:54.239Z,34.05
2018-05-18T13:29:21.824Z,34.30
2018-05-18T13:31:49.406Z,34.42
2018-05-18T13:34:17.242Z,32.54
2018-05-18T13:36:44.827Z,34.42
2018-05-18T13:39:12.405Z,34.06
2018-05-18T13:41:40.195Z,33.77
2018-05-18T13:44:07.781Z,34.24
2018-05-18T13:46:35.382Z,37.42
2018-05-18T13:49:02.993Z,34.19
2018-05-18T13:51:30.637Z,35.18
2018-05-18T13:53:58.237Z,35.78
2018-05-18T13:56:25.824Z,35.66
2018-05-18T13:58:53.626Z,35.35
2018-05-18T14:01:21.441Z,36.36
2018-05-18T14:03:49.259Z,38.30
2018-05-18T14:06:16.866Z,37.06
2018-05-18T14:08:44.649Z,37.47
2018-05-18T14:11:12.228Z,37.96
2018-05-18T14:13:39.821Z,37.47
2018-05-18T14:16:07.416Z,38.00
2018-05-18T14:18:34.991Z,37.85
2018-05-18T14:21:02.692Z,37.04
2018-05-18T14:23:30.211Z,37.83
2018-05-18T14:25:57.840Z,38.73
2018-05-18T14:28:25.428Z,38.83
2018-05-18T14:30:53.032Z,39.74
2018-05-18T14:33:20.619Z,38.94
2018-05-18T14:35:48.410Z,39.88
2018-05-18T14:38:16.041Z,39.86
2018-05-18T14:40:43.696Z,40.03
2018-05-18T14:43:11.377Z,40.50
2018-05-18T14:45:39.164Z,40.55
2018-05-18T14:48:06.838Z,40.79
2018-05-18T14:50:34.369Z,40.39
2018-05-18T14:53:01.948Z,39.78
2018-05-18T14:55:29.540Z,39.72
2018-05-18T14:57:57.144Z,40.37
2018-05-18T15:00:24.997Z,40.30
2018-05-18T15:02:52.584Z,39.97
2018-05-18T15:05:20.180Z,40.29
2018-05-18T15:07:47.784Z,41.39
2018-05-18T15:10:15.378Z,42.05
2018-05-18T15:12:42.964Z,42.52
2018-05-18T15:15:10.674Z,42.48
2018-05-18T15:17:38.524Z,44.07
2018-05-18T15:20:06.129Z,45.51
2018-05-18T15:22:33.874Z,45.46
2018-05-18T15:25:01.563Z,48.85
2018-05-18T15:27:29.156Z,54.51
2018-05-18T15:29:56.743Z,55.92
2018-05-18T15:32:24.433Z,53.52
2018-05-18T15:34:52.345Z,55.52
2018-05-18T15:37:19.970Z,55.23
2018-05-18T15:39:47.506Z,56.35
2018-05-18T15:42:15.110Z,56.73
2018-05-18T15:44:42.808Z,57.25
2018-05-18T15:47:10.539Z,57.96
2018-05-18T15:49:38.361Z,58.33
2018-05-18T15:52:06.015Z,58.07
2018-05-18T15:54:33.607Z,58.00
2018-05-18T15:57:01.204Z,56.47
2018-05-18T15:59:28.793Z,56.33
2018-05-18T16:01:56.385Z,56.57
2018-05-18T16:04:24.025Z,56.77
2018-05-18T16:06:51.606Z,56.05
2018-05-18T16:09:19.241Z,55.68
2018-05-18T16:11:46.822Z,55.24
2018-05-18T16:14:14.412Z,54.87
2018-05-18T16:16:42.045Z,55.70
2018-05-18T16:19:09.623Z,55.79
2018-05-18T16:21:37.232Z,55.16
2018-05-18T16:24:04.922Z,55.01
2018-05-18T16:26:32.799Z,54.64
2018-05-18T16:29:00.651Z,55.00
2018-05-18T16:31:28.468Z,59.19
2018-05-18T16:33:56.197Z,62.04
2018-05-18T16:36:23.768Z,63.37
2018-05-18T16:38:51.626Z,64.27
2018-05-18T16:41:19.207Z,65.24
2018-05-18T16:43:46.958Z,65.35
2018-05-18T16:46:14.780Z,65.54
2018-05-18T16:48:42.510Z,64.70
2018-05-18T16:51:10.163Z,64.38
2018-05-18T16:53:37.737Z,64.42
2018-05-18T16:56:05.294Z,64.06
2018-05-18T16:58:32.884Z,64.19
2018-05-18T17:01:00.460Z,64.81
2018-05-18T17:03:28.102Z,65.44
2018-05-18T17:05:55.689Z,65.74
2018-05-18T17:08:23.268Z,65.99
2018-05-18T17:10:51.057Z,66.43
2018-05-18T17:13:18.644Z,67.51
2018-05-18T17:15:46.300Z,68.14
2018-05-18T17:18:13.905Z,68.97
2018-05-18T17:20:41.670Z,69.43
2018-05-18T17:23:09.249Z,68.74
2018-05-18T17:25:37.069Z,68.72
2018-05-18T17:28:04.680Z,68.54
2018-05-18T17:30:32.273Z,68.00
2018-05-18T17:33:00.158Z,67.77
2018-05-18T17:35:27.772Z,67.58
2018-05-18T17:37:55.416Z,69.95
2018-05-18T17:40:23.028Z,70.76
2018-05-18T17:42:50.617Z,70.87
2018-05-18T17:45:18.511Z,71.91
2018-05-18T17:47:46.097Z,70.42
2018-05-18T17:50:14.721Z,71.21
2018-05-18T17:52:42.372Z,74.02
2018-05-18T17:55:10.157Z,75.10
2018-05-18T17:57:37.806Z,75.74
2018-05-18T18:00:06.027Z,77.45
2018-05-18T18:02:34.028Z,77.67
2018-05-18T18:05:01.646Z,79.59
2018-05-18T18:07:29.276Z,80.86
2018-05-18T18:09:56.852Z,81.65
2018-05-18T18:12:24.483Z,79.48
2018-05-18T18:14:52.080Z,80.41
2018-05-18T18:17:19.770Z,81.57
2018-05-18T18:19:47.370Z,83.00
2018-05-18T18:22:14.969Z,82.37
2018-05-18T18:24:42.561Z,83.33
2018-05-18T18:27:10.129Z,84.11
2018-05-18T18:29:37.765Z,83.60
2018-05-18T18:32:05.365Z,83.94
2018-05-18T18:34:32.980Z,83.86
2018-05-18T18:37:00.637Z,85.28
2018-05-18T18:39:28.236Z,85.75
2018-05-18T18:41:55.913Z,85.67
2018-05-18T18:44:23.493Z,86.28
2018-05-18T18:46:51.241Z,87.04
2018-05-18T18:49:18.826Z,85.89
2018-05-18T18:51:46.909Z,85.59
2018-05-18T18:54:14.703Z,85.50
2018-05-18T18:56:42.288Z,87.70
2018-05-18T18:59:09.878Z,88.65
2018-05-18T19:01:37.456Z,86.40
2018-05-18T19:04:05.121Z,86.80
2018-05-18T19:06:32.827Z,88.59
2018-05-18T19:09:00.428Z,88.76
2018-05-18T19:11:28.021Z,90.64
2018-05-18T19:13:55.663Z,90.86
2018-05-18T19:16:23.453Z,90.03
2018-05-18T19:18:51.305Z,91.16
2018-05-18T19:21:18.959Z,91.75
2018-05-18T19:23:46.633Z,92.40
2018-05-18T19:26:14.253Z,92.70
2018-05-18T19:28:41.880Z,91.85
2018-05-18T19:31:09.480Z,93.16
2018-05-18T19:33:37.315Z,92.44
2018-05-18T19:36:05.133Z,92.62
2018-05-18T19:38:32.791Z,92.58
2018-05-18T19:41:00.486Z,91.20
2018-05-18T19:43:28.081Z,91.14
2018-05-18T19:45:55.817Z,90.92
2018-05-18T19:48:23.400Z,91.23
2018-05-18T19:50:50.997Z,91.22
2018-05-18T19:53:18.590Z,91.29
2018-05-18T19:55:46.232Z,91.11
2018-05-18T19:58:13.823Z,89.25
2018-05-18T20:00:41.392Z,87.25
2018-05-18T20:03:09.232Z,88.20
2018-05-18T20:05:37.051Z,87.64
2018-05-18T20:08:04.673Z,87.81
2018-05-18T20:10:32.248Z,86.40
2018-05-18T20:13:00.105Z,88.22
2018-05-18T20:15:27.678Z,88.00
2018-05-18T20:17:55.319Z,88.24
2018-05-18T20:20:23.160Z,88.88
2018-05-18T20:22:50.893Z,90.21
2018-05-18T20:25:18.697Z,90.80
2018-05-18T20:27:46.516Z,91.77
2018-05-18T20:30:14.334Z,92.71
2018-05-18T20:32:42.153Z,90.94
2018-05-18T20:35:09.971Z,91.09
2018-05-18T20:37:37.565Z,88.96
2018-05-18T20:40:05.176Z,88.71
2018-05-18T20:42:32.765Z,89.66
2018-05-18T20:45:00.385Z,90.99
2018-05-18T20:47:28.082Z,89.29
2018-05-18T20:49:55.676Z,90.34
2018-05-18T20:52:23.257Z,90.02
2018-05-18T20:54:50.852Z,90.11
2018-05-18T20:57:18.596Z,90.46
2018-05-18T20:59:46.188Z,91.16
2018-05-18T21:02:13.800Z,90.80
2018-05-18T21:04:41.438Z,90.07
2018-05-18T21:07:09.027Z,89.79
2018-05-18T21:09:36.608Z,89.82
2018-05-18T21:12:04.230Z,88.71
2018-05-18T21:14:31.987Z,88.11
2018-05-18T21:16:59.591Z,87.48
2018-05-18T21:19:27.178Z,87.65
2018-05-18T21:21:54.981Z,87.18
2018-05-18T21:24:22.799Z,87.97
2018-05-18T21:26:50.618Z,90.12
2018-05-18T21:29:18.204Z,90.51
2018-05-18T21:31:45.865Z,90.98
2018-05-18T21:34:13.469Z,92.04
2018-05-18T21:36:41.046Z,90.33
2018-05-18T21:39:08.690Z,89.22
2018-05-18T21:41:36.527Z,88.87
2018-05-18T21:44:04.120Z,86.89
2018-05-18T21:46:31.931Z,88.52
2018-05-18T21:48:59.510Z,87.68
2018-05-18T21:51:27.299Z,88.88
2018-05-18T21:53:54.889Z,89.21
2018-05-18T21:56:22.477Z,89.24
2018-05-18T21:58:50.063Z,89.12
2018-05-18T22:01:17.652Z,89.76
2018-05-18T22:03:45.492Z,89.79
2018-05-18T22:06:13.070Z,89.54
2018-05-18T22:08:40.926Z,89.59
2018-05-18T22:11:08.502Z,88.61
2018-05-18T22:13:36.262Z,88.88
2018-05-18T22:16:03.888Z,88.87
2018-05-18T22:18:31.602Z,89.22
2018-05-18T22:20:59.365Z,89.33
2018-05-18T22:23:26.940Z,89.30
2018-05-18T22:25:54.754Z,89.35
2018-05-18T22:28:22.337Z,88.90
2018-05-18T22:30:49.911Z,88.52
2018-05-18T22:33:17.500Z,88.81
2018-05-18T22:35:45.057Z,88.53
2018-05-18T22:38:12.944Z,88.58
2018-05-18T22:40:40.763Z,88.72
2018-05-18T22:43:08.354Z,89.09
2018-05-18T22:45:35.937Z,89.05
2018-05-18T22:48:03.512Z,89.33
2018-05-18T22:50:31.126Z,90.27
2018-05-18T22:52:58.952Z,90.82
2018-05-18T22:55:26.561Z,91.29
2018-05-18T22:57:54.145Z,91.40
2018-05-18T23:00:29.637Z,91.20
2018-05-18T23:02:57.269Z,91.56
2018-05-18T23:05:24.850Z,91.65
2018-05-18T23:07:52.496Z,92.33
2018-05-18T23:10:20.084Z,92.43
2018-05-18T23:12:47.825Z,91.93
2018-05-18T23:15:15.398Z,91.45
2018-05-18T23:17:42.972Z,91.79
2018-05-18T23:20:10.689Z,92.77
2018-05-18T23:22:38.268Z,92.48
2018-05-18T23:25:05.907Z,91.17
2018-05-18T23:27:33.501Z,90.74
2018-05-18T23:30:01.249Z,90.62
2018-05-18T23:32:28.844Z,91.29
2018-05-18T23:34:56.567Z,91.33
2018-05-18T23:37:24.406Z,91.76
2018-05-18T23:39:52.350Z,92.63
2018-05-18T23:42:19.992Z,93.03
2018-05-18T23:44:47.582Z,93.36
2018-05-18T23:47:15.378Z,93.84
2018-05-18T23:49:42.964Z,94.04
2018-05-18T23:52:10.557Z,93.94
2018-05-18T23:54:38.148Z,93.52
2018-05-18T23:57:05.731Z,93.69
2018-05-18T23:59:33.573Z,93.74
